Time;durP1;ratioP1;P1;durP2;ratioP2;P2;SDS_P1;SDS_P2;PMS_P1;PMS_P2;Temp;Humidity;BMP_temperature;BMP_pressure;BME280_temperature;BME280_humidity;BME280_pressure;Samples;Min_cycle;Max_cycle;Signal;HPM_P1;HPM_P2
2023/07/08 00:07:04;;;;;;;10.93;6.53;;;;;;;18.12;58.30;101666.66;15402845;28;20042;-47
2023/07/08 00:14:39;;;;;;;11.57;6.68;;;;;;;18.02;58.56;101665.34;15410850;28;20101;-48
2023/07/08 00:22:15;;;;;;;10.45;6.70;;;;;;;17.89;58.91;101662.88;15405058;28;20035;-49
2023/07/08 00:29:48;;;;;;;10.02;6.68;;;;;;;17.90;58.45;101652.81;15418237;28;20047;-47
2023/07/08 00:37:22;;;;;;;8.80;6.57;;;;;;;17.79;58.11;101644.44;15413650;28;20061;-54
2023/07/08 00:44:54;;;;;;;10.40;7.20;;;;;;;17.60;59.10;101653.75;15398071;28;20069;-50
2023/07/08 00:52:30;;;;;;;11.45;7.45;;;;;;;17.65;59.34;101648.44;15427033;28;20086;-50
2023/07/08 01:00:08;;;;;;;10.35;7.28;;;;;;;17.61;59.33;101649.97;15390190;28;20106;-50
2023/07/08 01:07:54;;;;;;;10.73;7.20;;;;;;;17.44;59.37;101657.13;15417270;28;20464;-46
2023/07/08 01:15:35;;;;;;;13.98;8.10;;;;;;;17.51;59.01;101655.16;15412691;28;20043;-49
2023/07/08 01:23:10;;;;;;;10.02;7.65;;;;;;;17.39;58.77;101651.56;15409924;28;20047;-46
2023/07/08 01:30:48;;;;;;;12.35;7.55;;;;;;;17.30;59.15;101642.97;15426934;28;20453;-49
2023/07/08 01:38:26;;;;;;;11.77;8.15;;;;;;;17.28;59.76;101647.78;15394548;28;20054;-51
2023/07/08 01:46:01;;;;;;;11.90;7.45;;;;;;;17.23;59.17;101640.34;15411808;28;20049;-47
2023/07/08 01:53:38;;;;;;;10.50;8.23;;;;;;;17.19;58.86;101630.19;15409589;28;20126;-47
2023/07/08 02:01:11;;;;;;;10.20;7.60;;;;;;;17.17;59.64;101630.44;15409556;28;20480;-52
2023/07/08 02:08:46;;;;;;;10.48;7.70;;;;;;;17.05;59.68;101640.41;15410540;28;20121;-48
2023/07/08 02:16:21;;;;;;;11.10;8.30;;;;;;;16.90;60.50;101640.00;15408475;28;20485;-51
2023/07/08 02:23:55;;;;;;;10.35;7.43;;;;;;;16.83;60.72;101624.66;15408038;28;20500;-46
2023/07/08 02:31:28;;;;;;;10.60;8.48;;;;;;;16.74;61.09;101636.88;15410693;28;20042;-48
2023/07/08 02:39:02;;;;;;;13.73;8.65;;;;;;;16.61;61.43;101634.31;15423916;28;20057;-50
2023/07/08 02:46:35;;;;;;;10.77;8.38;;;;;;;16.61;61.41;101637.03;15415003;28;20039;-49
2023/07/08 02:54:09;;;;;;;13.37;8.73;;;;;;;16.40;61.86;101629.38;15406869;28;20051;-50
2023/07/08 03:01:46;;;;;;;11.50;8.82;;;;;;;16.15;62.96;101624.03;15423787;28;20106;-51
2023/07/08 03:09:21;;;;;;;10.57;7.88;;;;;;;16.35;62.12;101624.63;15406321;28;20105;-47
2023/07/08 03:16:54;;;;;;;10.80;8.02;;;;;;;16.24;62.55;101618.09;15406560;28;20043;-46
2023/07/08 03:24:29;;;;;;;11.65;8.45;;;;;;;16.16;62.59;101610.25;15424850;28;20110;-53
2023/07/08 03:32:06;;;;;;;13.88;9.10;;;;;;;16.33;62.35;101615.91;15391297;28;20097;-48
2023/07/08 03:39:40;;;;;;;14.27;8.93;;;;;;;16.42;62.55;101613.72;15422449;28;20102;-49
2023/07/08 03:47:14;;;;;;;11.82;8.65;;;;;;;16.48;62.83;101618.22;15411040;28;20633;-46
2023/07/08 03:54:48;;;;;;;10.88;8.32;;;;;;;16.56;62.63;101618.75;15432849;28;20059;-46
2023/07/08 04:02:24;;;;;;;13.48;8.10;;;;;;;16.90;61.59;101621.03;15415887;28;20275;-50
2023/07/08 04:09:58;;;;;;;10.65;6.90;;;;;;;16.82;58.86;101611.31;15422198;28;20475;-51
2023/07/08 04:17:31;;;;;;;9.23;6.10;;;;;;;17.53;56.07;101615.00;15407939;28;20484;-54
2023/07/08 04:25:05;;;;;;;6.80;5.70;;;;;;;18.07;56.52;101618.47;15414122;28;20121;-47
2023/07/08 04:32:38;;;;;;;5.88;5.28;;;;;;;17.85;54.45;101627.19;15430729;28;20078;-53
2023/07/08 04:40:18;;;;;;;8.27;5.30;;;;;;;18.42;52.96;101629.25;15413659;28;20042;-51
2023/07/08 04:47:52;;;;;;;8.35;5.43;;;;;;;18.92;53.04;101622.34;15432126;28;20448;-51
2023/07/08 04:55:26;;;;;;;7.13;5.05;;;;;;;18.97;53.32;101617.00;15412930;28;20133;-49
2023/07/08 05:02:59;;;;;;;8.68;5.22;;;;;;;19.61;52.23;101621.09;15398291;23;20423;-49
2023/07/08 05:10:34;;;;;;;6.72;4.90;;;;;;;19.41;51.95;101636.28;15371147;28;20114;-48
2023/07/08 05:18:07;;;;;;;8.63;5.35;;;;;;;20.17;51.31;101629.25;15348649;29;20067;-52
2023/07/08 05:25:41;;;;;;;7.65;4.47;;;;;;;20.56;49.55;101638.25;15358668;29;20102;-50
2023/07/08 05:33:14;;;;;;;10.13;5.20;;;;;;;21.09;48.21;101638.50;15374234;28;20044;-55
2023/07/08 05:40:50;;;;;;;;;;;;;;;22.61;44.63;101632.41;15373538;28;20102;-51
2023/07/08 05:48:23;;;;;;;6.82;4.40;;;;;;;22.37;44.79;101640.25;15373248;29;20487;-47
2023/07/08 05:55:59;;;;;;;6.40;4.20;;;;;;;22.68;43.00;101641.19;15372812;28;20052;-51
2023/07/08 06:03:32;;;;;;;10.55;4.28;;;;;;;23.12;40.73;101648.97;15354114;28;20416;-51
2023/07/08 06:11:06;;;;;;;5.82;4.18;;;;;;;23.32;39.82;101649.00;15355271;28;20043;-48
2023/07/08 06:18:39;;;;;;;6.88;4.32;;;;;;;23.91;39.52;101653.06;15368015;29;20055;-52
2023/07/08 06:26:13;;;;;;;8.70;4.25;;;;;;;24.07;40.18;101656.63;15370029;29;20571;-50
2023/07/08 06:33:47;;;;;;;9.77;4.10;;;;;;;24.92;39.66;101645.53;15369987;28;20051;-50
2023/07/08 06:41:22;;;;;;;7.13;4.00;;;;;;;24.88;40.86;101637.03;15369419;28;20043;-49
2023/07/08 06:48:55;;;;;;;8.55;4.47;;;;;;;25.53;40.14;101636.84;15372078;28;20046;-53
2023/07/08 06:56:29;;;;;;;8.02;4.10;;;;;;;26.05;37.70;101638.00;15367271;28;20081;-54
2023/07/08 07:04:03;;;;;;;5.18;3.75;;;;;;;26.23;38.42;101630.91;15350725;29;20055;-55
2023/07/08 07:11:37;;;;;;;9.50;3.50;;;;;;;26.92;38.62;101636.88;15347252;28;20067;-49
2023/07/08 07:19:13;;;;;;;5.15;3.30;;;;;;;26.84;37.81;101643.88;15362232;28;20071;-55
2023/07/08 07:26:47;;;;;;;7.25;3.60;;;;;;;27.35;38.47;101628.50;15367255;29;20133;-53
2023/07/08 07:34:20;;;;;;;6.15;3.40;;;;;;;27.70;38.20;101624.31;15350481;29;20397;-54
2023/07/08 07:42:00;;;;;;;6.38;3.20;;;;;;;28.70;36.29;101624.50;15360818;29;20534;-48
2023/07/08 07:49:34;;;;;;;5.18;2.90;;;;;;;28.91;32.46;101622.06;15350651;29;20073;-55
2023/07/08 07:57:11;;;;;;;4.93;2.63;;;;;;;28.92;33.52;101619.00;15365606;29;20134;-53
2023/07/08 08:04:53;;;;;;;4.93;2.97;;;;;;;29.57;30.43;101620.47;15366961;28;20051;-54
2023/07/08 08:12:28;;;;;;;10.18;3.05;;;;;;;29.62;30.84;101617.56;15367428;28;20126;-51
2023/07/08 08:20:00;;;;;;;4.82;2.92;;;;;;;29.95;34.38;101620.00;15356951;29;20178;-51
2023/07/08 08:27:37;;;;;;;6.00;2.90;;;;;;;30.32;29.76;101620.63;15351180;29;20038;-55
2023/07/08 08:35:13;;;;;;;4.85;2.30;;;;;;;30.24;27.85;101613.91;15356124;28;20240;-55
2023/07/08 08:42:58;;;;;;;3.85;2.40;;;;;;;30.78;26.66;101617.28;15383748;28;20508;-56
2023/07/08 08:50:37;;;;;;;8.40;2.70;;;;;;;30.84;29.14;101623.47;15375071;29;20047;-53
2023/07/08 08:58:25;;;;;;;3.28;2.05;;;;;;;31.58;25.97;101622.41;15358632;29;20126;-51
2023/07/08 09:06:00;;;;;;;5.53;2.30;;;;;;;31.63;23.36;101617.47;15375091;28;20043;-56
2023/07/08 09:13:37;;;;;;;3.58;2.05;;;;;;;32.06;25.30;101616.50;15363525;28;20039;-54
2023/07/08 09:21:20;;;;;;;4.05;2.25;;;;;;;31.94;20.66;101624.72;15369984;29;20082;-53
2023/07/08 09:28:54;;;;;;;3.55;2.47;;;;;;;31.84;21.33;101617.56;15382940;28;20035;-53
2023/07/08 09:36:26;;;;;;;5.18;2.38;;;;;;;32.30;23.67;101607.53;15372101;28;20043;-57
2023/07/08 09:44:16;;;;;;;6.03;2.28;;;;;;;33.04;21.03;101594.88;15373531;28;20118;-57
2023/07/08 09:51:50;;;;;;;4.60;1.83;;;;;;;32.63;19.64;101606.84;15356895;28;20039;-53
2023/07/08 09:59:35;;;;;;;4.18;2.20;;;;;;;33.08;22.91;101581.91;15373711;29;20070;-52
2023/07/08 10:07:12;;;;;;;3.42;2.25;;;;;;;33.24;21.85;101601.53;15373716;28;20047;-53
2023/07/08 10:14:51;;;;;;;3.90;2.17;;;;;;;33.03;22.40;101607.19;15372750;28;20436;-55
2023/07/08 10:22:37;;;;;;;3.45;2.10;;;;;;;33.65;21.97;101602.59;15355399;28;20051;-56
2023/07/08 10:30:20;;;;;;;2.38;2.10;;;;;;;34.28;20.91;101597.50;15355370;28;20042;-54
2023/07/08 10:38:08;;;;;;;4.55;2.30;;;;;;;34.13;21.87;101587.88;15354570;29;20054;-53
2023/07/08 10:45:50;;;;;;;3.83;2.38;;;;;;;34.46;23.13;101592.47;15354558;29;20053;-52
2023/07/08 10:53:44;;;;;;;3.08;2.40;;;;;;;33.99;21.54;101576.28;15354213;28;20055;-53
2023/07/08 11:01:32;;;;;;;4.43;2.47;;;;;;;34.21;19.89;101583.34;15369820;23;20043;-51
2023/07/08 11:09:08;;;;;;;3.22;2.45;;;;;;;35.18;18.23;101582.22;15368602;29;20058;-52
2023/07/08 11:16:48;;;;;;;5.13;2.50;;;;;;;34.78;19.83;101571.91;15370780;28;20054;-50
2023/07/08 11:24:29;;;;;;;5.80;2.55;;;;;;;34.94;20.13;101574.75;15364200;28;20035;-51
2023/07/08 11:32:06;;;;;;;4.03;2.60;;;;;;;35.03;18.35;101559.88;15363810;28;20138;-50
2023/07/08 11:39:42;;;;;;;4.53;2.45;;;;;;;35.58;18.65;101552.53;15367351;29;20388;-50
2023/07/08 11:47:20;;;;;;;4.60;2.50;;;;;;;35.85;20.45;101548.00;15361022;29;20558;-53
2023/07/08 11:55:00;;;;;;;4.20;2.30;;;;;;;35.30;20.80;101550.63;15366831;28;20036;-52
2023/07/08 12:02:51;;;;;;;5.07;2.55;;;;;;;35.48;18.74;101537.94;15367333;28;20102;-53
2023/07/08 12:10:29;;;;;;;5.15;2.65;;;;;;;34.73;20.07;101537.91;15378417;28;20051;-50
2023/07/08 12:18:12;;;;;;;4.20;2.50;;;;;;;35.89;22.11;101527.34;15360807;29;20080;-50
2023/07/08 12:25:45;;;;;;;6.57;2.50;;;;;;;35.76;19.93;101529.44;15387899;28;20050;-57
2023/07/08 12:33:27;;;;;;;5.75;2.40;;;;;;;35.72;19.62;101528.56;15378563;28;20047;-53
2023/07/08 12:41:03;;;;;;;4.45;2.50;;;;;;;36.49;18.74;101510.34;15359887;29;20051;-50
2023/07/08 12:48:40;;;;;;;9.68;2.55;;;;;;;35.98;19.26;101511.22;15376199;29;20130;-53
2023/07/08 12:56:18;;;;;;;4.30;2.58;;;;;;;36.45;19.14;101513.06;15376686;28;20051;-51
2023/07/08 13:03:58;;;;;;;5.55;2.50;;;;;;;35.86;21.15;101502.13;15359062;28;20046;-53
2023/07/08 13:11:31;;;;;;;5.88;2.70;;;;;;;36.39;20.79;101499.72;15375110;29;20059;-51
2023/07/08 13:19:06;;;;;;;4.97;2.60;;;;;;;35.62;19.44;101500.38;15374263;28;20051;-50
2023/07/08 13:26:39;;;;;;;5.15;2.95;;;;;;;34.61;18.14;101496.13;15375051;29;20055;-53
2023/07/08 13:34:21;;;;;;;5.88;3.03;;;;;;;34.73;20.28;101494.09;15362735;29;20051;-49
2023/07/08 13:41:54;;;;;;;4.03;2.92;;;;;;;33.82;20.15;101485.41;15373659;29;20051;-53
2023/07/08 13:49:40;;;;;;;4.78;2.78;;;;;;;33.34;21.65;101483.41;15356565;29;20523;-52
2023/07/08 13:57:22;;;;;;;6.07;3.05;;;;;;;33.18;21.28;101481.31;15367043;29;20062;-52
2023/07/08 14:04:57;;;;;;;6.18;3.03;;;;;;;32.96;19.41;101478.97;15373490;29;20046;-52
2023/07/08 14:12:33;;;;;;;4.75;2.95;;;;;;;32.55;19.67;101480.69;15357076;29;20450;-53
2023/07/08 14:20:15;;;;;;;5.15;3.20;;;;;;;32.81;19.74;101460.94;15372744;28;20612;-53
2023/07/08 14:27:50;;;;;;;4.85;3.15;;;;;;;32.78;19.71;101474.72;15381856;28;20079;-51
2023/07/08 14:35:27;;;;;;;3.50;3.13;;;;;;;33.37;20.12;101471.59;15372118;28;20042;-52
2023/07/08 14:43:05;;;;;;;6.32;2.67;;;;;;;33.17;21.61;101468.56;15371645;28;20077;-52
2023/07/08 14:50:44;;;;;;;5.25;3.10;;;;;;;33.34;19.03;101453.59;15371265;28;20600;-51
2023/07/08 14:58:22;;;;;;;5.15;3.28;;;;;;;32.64;21.85;101459.19;15370623;29;20110;-50
2023/07/08 15:05:57;;;;;;;3.58;2.65;;;;;;;32.57;21.29;101449.75;15354342;29;20086;-53
2023/07/08 15:13:31;;;;;;;4.68;3.25;;;;;;;32.41;22.56;101458.75;15353324;28;20047;-50
2023/07/08 15:21:05;;;;;;;6.47;2.80;;;;;;;31.98;21.55;101454.31;15368489;28;20589;-51
2023/07/08 15:28:47;;;;;;;4.15;2.95;;;;;;;31.84;23.17;101444.63;15377894;28;20057;-52
2023/07/08 15:36:21;;;;;;;3.28;2.85;;;;;;;31.37;22.89;101444.72;15352566;29;20055;-52
2023/07/08 15:43:56;;;;;;;5.13;2.80;;;;;;;31.44;24.01;101439.47;15360120;28;20048;-52
2023/07/08 15:51:30;;;;;;;4.90;3.25;;;;;;;31.76;22.85;101443.53;15364647;28;20062;-50
2023/07/08 15:59:04;;;;;;;4.60;3.10;;;;;;;31.96;22.62;101447.50;15363849;29;20142;-51
2023/07/08 16:06:38;;;;;;;4.53;3.10;;;;;;;31.82;23.32;101436.66;15381495;28;20180;-52
2023/07/08 16:14:14;;;;;;;3.67;3.00;;;;;;;31.73;22.27;101445.00;15380187;28;20082;-55
2023/07/08 16:21:48;;;;;;;5.65;3.00;;;;;;;31.44;23.68;101448.59;15379990;28;20110;-52
2023/07/08 16:29:22;;;;;;;4.60;3.50;;;;;;;31.62;24.79;101452.09;15382276;28;20051;-50
2023/07/08 16:36:56;;;;;;;7.15;4.63;;;;;;;31.14;23.72;101446.91;15379961;28;20059;-51
2023/07/08 16:44:29;;;;;;;8.18;4.07;;;;;;;31.37;23.83;101445.53;15381263;28;20082;-54
2023/07/08 16:52:03;;;;;;;6.40;4.95;;;;;;;30.71;23.34;101439.56;15344320;28;20070;-50
2023/07/08 16:59:38;;;;;;;8.25;4.75;;;;;;;30.56;24.89;101448.38;15370783;29;20134;-52
2023/07/08 17:07:12;;;;;;;5.30;3.10;;;;;;;30.52;24.87;101450.16;15471031;23;20060;-55
2023/07/08 17:14:45;;;;;;;8.18;3.38;;;;;;;30.30;25.16;101445.59;15437383;28;20047;-56
2023/07/08 17:22:19;;;;;;;6.30;3.58;;;;;;;30.34;26.45;101432.75;15430457;28;20058;-53
2023/07/08 17:29:51;;;;;;;4.35;3.78;;;;;;;30.21;25.71;101432.56;15418436;28;20051;-55
2023/07/08 17:37:25;;;;;;;6.75;3.33;;;;;;;30.13;24.81;101438.09;15431214;28;20051;-54
2023/07/08 17:44:58;;;;;;;7.38;3.30;;;;;;;29.96;25.36;101433.38;15428709;28;20129;-51
2023/07/08 17:52:33;;;;;;;4.85;3.30;;;;;;;30.09;26.90;101432.41;15411324;28;20491;-52
2023/07/08 18:00:12;;;;;;;8.38;3.40;;;;;;;29.38;26.25;101429.81;15410616;28;20148;-52
2023/07/08 18:07:48;;;;;;;11.05;4.32;;;;;;;29.19;27.45;101432.00;15427747;28;20194;-53
2023/07/08 18:15:23;;;;;;;4.82;3.30;;;;;;;29.17;28.28;101435.09;15409852;28;20138;-51
2023/07/08 18:22:57;;;;;;;6.18;3.60;;;;;;;29.07;27.86;101429.03;15426723;28;20054;-51
2023/07/08 18:30:31;;;;;;;6.30;3.50;;;;;;;28.88;28.33;101434.78;15426503;28;20043;-54
2023/07/08 18:38:06;;;;;;;8.52;3.70;;;;;;;28.80;30.01;101433.59;15425598;28;20050;-50
2023/07/08 18:45:38;;;;;;;6.93;3.85;;;;;;;28.53;31.24;101437.31;15407731;28;20113;-48
2023/07/08 18:53:14;;;;;;;5.95;4.07;;;;;;;28.33;31.58;101440.56;15406583;28;20058;-52
2023/07/08 19:00:48;;;;;;;7.38;3.72;;;;;;;28.15;31.01;101453.41;15424201;28;20050;-50
2023/07/08 19:08:23;;;;;;;6.90;3.92;;;;;;;27.96;34.41;101457.13;15423928;28;20050;-50
2023/07/08 19:15:56;;;;;;;7.38;4.30;;;;;;;27.65;34.47;101451.44;15424170;28;20550;-53
2023/07/08 19:23:30;;;;;;;7.22;4.25;;;;;;;27.31;33.84;101468.38;15406056;28;20042;-49
2023/07/08 19:31:03;;;;;;;6.43;4.22;;;;;;;27.08;35.24;101469.34;15395854;28;20043;-52
2023/07/08 19:38:37;;;;;;;7.18;5.20;;;;;;;26.51;35.95;101486.03;15416952;28;20039;-50
2023/07/08 19:46:14;;;;;;;63.85;42.25;;;;;;;25.30;35.14;101517.50;15404200;28;20499;-50
2023/07/08 19:53:51;;;;;;;6.63;3.28;;;;;;;25.15;35.42;101502.00;15421116;28;20378;-56
2023/07/08 20:01:24;;;;;;;6.30;2.70;;;;;;;25.30;36.20;101535.91;15419341;28;20082;-53
2023/07/08 20:08:58;;;;;;;31.65;21.63;;;;;;;25.47;36.05;101544.56;15420102;28;20051;-52
2023/07/08 20:16:31;;;;;;;11.63;3.20;;;;;;;25.61;35.58;101547.44;15420099;28;20187;-51
2023/07/08 20:24:06;;;;;;;4.07;3.05;;;;;;;25.06;36.36;101550.41;15418450;28;20514;-52
2023/07/08 20:31:38;;;;;;;5.80;2.58;;;;;;;24.79;36.63;101564.59;15425321;28;20047;-52
2023/07/08 20:39:13;;;;;;;7.82;2.80;;;;;;;24.65;36.19;101563.63;15425779;28;20046;-52
2023/07/08 20:46:48;;;;;;;8.70;2.92;;;;;;;24.76;36.51;101572.59;15397806;28;20446;-55
2023/07/08 20:54:25;;;;;;;7.25;3.13;;;;;;;24.09;37.17;101583.09;15431918;28;20050;-55
2023/07/08 21:01:58;;;;;;;7.72;3.60;;;;;;;24.23;36.37;101595.09;15431796;28;20408;-57
2023/07/08 21:09:33;;;;;;;4.43;2.60;;;;;;;23.96;36.68;101589.16;15431084;28;20070;-57
2023/07/08 21:17:14;;;;;;;5.05;2.63;;;;;;;23.90;36.30;101591.94;15398148;28;20047;-55
2023/07/08 21:24:49;;;;;;;4.15;2.50;;;;;;;24.15;35.96;101591.03;15412565;28;20043;-49
2023/07/08 21:32:22;;;;;;;5.80;2.80;;;;;;;23.67;36.60;101606.25;15430767;28;20407;-54
2023/07/08 21:39:56;;;;;;;4.63;2.70;;;;;;;23.15;38.18;101599.13;15428574;28;20125;-51
2023/07/08 21:47:29;;;;;;;6.60;2.80;;;;;;;23.19;38.15;101592.00;15428750;28;20039;-53
2023/07/08 21:55:03;;;;;;;5.32;2.70;;;;;;;23.10;37.74;101594.47;15425705;28;20173;-54
2023/07/08 22:02:36;;;;;;;4.80;2.70;;;;;;;22.97;38.47;101600.50;15410147;28;20853;-51
2023/07/08 22:10:14;;;;;;;6.28;3.28;;;;;;;23.26;37.92;101611.72;15411562;28;20042;-52
2023/07/08 22:17:52;;;;;;;6.38;2.90;;;;;;;22.92;38.64;101616.91;15409232;28;20050;-50
2023/07/08 22:25:29;;;;;;;5.05;2.65;;;;;;;22.95;38.53;101608.16;15426310;28;20105;-48
2023/07/08 22:33:02;;;;;;;7.88;2.67;;;;;;;22.41;40.03;101619.47;15425406;28;20398;-51
2023/07/08 22:40:40;;;;;;;4.05;2.83;;;;;;;22.39;40.51;101611.56;15407245;28;20035;-50
2023/07/08 22:48:14;;;;;;;5.53;3.10;;;;;;;22.84;40.16;101612.75;15406997;28;20126;-50
2023/07/08 22:55:48;;;;;;;7.78;3.17;;;;;;;22.82;39.23;101620.41;15423469;28;20214;-49
2023/07/08 23:03:21;;;;;;;6.05;3.17;;;;;;;22.98;40.33;101623.22;15438848;23;20125;-56
2023/07/08 23:10:58;;;;;;;7.50;3.13;;;;;;;22.69;41.31;101629.16;15424331;28;20051;-50
2023/07/08 23:18:31;;;;;;;7.20;2.85;;;;;;;22.40;41.94;101639.72;15429557;28;20113;-52
2023/07/08 23:26:13;;;;;;;7.53;3.22;;;;;;;22.33;42.27;101631.75;15428431;28;20414;-52
2023/07/08 23:33:46;;;;;;;5.65;2.97;;;;;;;22.07;43.44;101625.31;15435095;28;20202;-52
2023/07/08 23:41:21;;;;;;;8.38;3.22;;;;;;;21.85;44.48;101627.38;15438752;28;20074;-50
2023/07/08 23:48:54;;;;;;;7.28;3.33;;;;;;;21.82;43.91;101623.28;15423212;28;20074;-51
2023/07/08 23:56:30;;;;;;;5.47;3.00;;;;;;;21.69;43.86;101621.00;15426662;28;20035;-50
